Faneromeni — SVKG — position and weather

sailwx.info

Track history (hours):
 
Tides and Currents Weather Stations Pressure Air Temp Water Temp Dewpoint Dewpoint Depression Visibility Wind Speed Wind Dir Waves Ship Positions

Faneromeni

Last reported at 2017-Feb-27 06:33 UTC. Time now 2017-Feb-27 06:55 UTC.
Position N 51°56' E 004°03'.

Length 230 m; draft 14.4 m.

Type: Ship. MMSI: 240576000.

Date/timePositionNaut miles runAvg speedWind from/ knotsBaromVisibWave heightAir tempDewpointWater temp
2017-Feb-27 06:33N 51°56' E 004°03'0 0.0
2017-Feb-27 05:33N 51°56' E 004°03'0 0.0
2017-Feb-27 04:33N 51°56' E 004°03'0 0.0
2017-Feb-27 03:33N 51°56' E 004°03'0 0.0
2017-Feb-27 02:33N 51°56' E 004°03'0 0.0
2017-Feb-27 01:33N 51°56' E 004°03'0 0.0
2017-Feb-27 00:33N 51°56' E 004°03'0 0.0
2017-Feb-26 23:33N 51°56' E 004°03'0 0.0
2017-Feb-26 22:33N 51°56' E 004°03'0 0.0
2017-Feb-26 21:33N 51°56' E 004°03'0 0.0
2017-Feb-26 20:32N 51°56' E 004°03'0 0.0
2017-Feb-26 19:33N 51°56' E 004°03'0 0.0
2017-Feb-26 18:33N 51°56' E 004°03'0 0.0
2017-Feb-26 17:33N 51°56' E 004°03'0 0.0
2017-Feb-26 16:32N 51°56' E 004°03'0 0.0
2017-Feb-26 15:33N 51°56' E 004°03'0 0.0
2017-Feb-26 14:30N 51°56' E 004°03'0 0.0
2017-Feb-26 13:33N 51°56' E 004°03'0 0.0
2017-Feb-26 12:33N 51°56' E 004°03'0 0.0
2017-Feb-26 11:33N 51°56' E 004°03'0 0.0
2017-Feb-26 10:32N 51°56' E 004°03'0 0.0
2017-Feb-26 09:33N 51°56' E 004°03'0 0.0
2017-Feb-26 08:33N 51°56' E 004°03'0 0.0
2017-Feb-26 07:33N 51°56' E 004°03'0 0.0
2017-Feb-26 06:33N 51°56' E 004°03'0 0.3
2017-Feb-26 05:33N 51°56' E 004°03'3 3.3
2017-Feb-26 04:33N 51°59' E 004°02'9 8.7
2017-Feb-26 03:33N 52°01' E 003°49'1211.1
2017-Feb-26 02:30N 51°59' E 003°30'4911.4
2017-Feb-25 22:12N 51°35' E 002°21'710.3
2017-Feb-25 21:33N 51°30' E 002°14'10 9.5
2017-Feb-25 20:33N 51°23' E 002°03'9 8.9
2017-Feb-25 19:33N 51°17' E 001°54'9 8.7
2017-Feb-25 18:33N 51°10' E 001°44'9 9.1
2017-Feb-25 17:33N 51°03' E 001°36'10 9.9
2017-Feb-25 16:33N 50°55' E 001°27'1010.3
2017-Feb-25 15:33N 50°45' E 001°21'4210.4
2017-Feb-25 11:32N 50°24' E 000°24'1211.2
2017-Feb-25 10:29N 50°21' E 000°07'1111.8
2017-Feb-25 09:33N 50°18' W 000°10'1312.5
2017-Feb-25 08:32N 50°15' W 000°29'1513.5
2017-Feb-25 07:25N 50°11' W 000°52'2613.6
2017-Feb-25 05:32N 50°04' W 001°31'1412.4
2017-Feb-25 04:24N 50°01' W 001°52'1110.9
2017-Feb-25 03:22N 49°58' W 002°09'19 9.3
2017-Feb-25 01:23N 49°53' W 002°36'8 8.9
2017-Feb-25 00:29N 49°50' W 002°48'11 9.3
2017-Feb-24 23:17N 49°46' W 003°04'8 9.8
2017-Feb-24 22:29N 49°42' W 003°14'1010.0
2017-Feb-24 21:31N 49°37' W 003°27'7711.1
2017-Feb-24 14:33N 48°57' W 005°09'1111.2
2017-Feb-24 13:33N 48°51' W 005°23'  
2017-Feb-22 01:33N 39°53' W 009°51'1010.5
2017-Feb-22 00:33N 39°43' W 009°51'1110.5
2017-Feb-21 23:33N 39°32' W 009°51'1110.7
2017-Feb-21 22:33N 39°22' W 009°52'1110.7
2017-Feb-21 21:33N 39°11' W 009°52'1010.4
2017-Feb-21 20:33N 39°01' W 009°52'1010.3
2017-Feb-21 19:33N 38°50' W 009°52'1010.2
2017-Feb-21 18:33N 38°40' W 009°51'1010.3
2017-Feb-21 17:33N 38°30' W 009°48'1010.2
2017-Feb-21 16:33N 38°20' W 009°45'1010.0
2017-Feb-21 15:34N 38°10' W 009°42'1010.1
2017-Feb-21 14:34N 38°01' W 009°39'10 9.9
2017-Feb-21 13:33N 37°51' W 009°35'6 6.1
2017-Feb-21 12:33N 37°45' W 009°34'8 7.7
2017-Feb-21 11:33N 37°38' W 009°33'210 9.5
2017-Feb-20 13:29N 35°58' W 005°42'1010.6
2017-Feb-20 12:33N 35°59' W 005°30'1110.6
2017-Feb-20 11:34N 36°01' W 005°17'1110.7
2017-Feb-20 10:33N 36°03' W 005°04'  
Track history (hours):
 
Tides and Currents Weather Stations Pressure Air Temp Water Temp Dewpoint Dewpoint Depression Visibility Wind Speed Wind Dir Waves Ship Positions

Faneromeni

Last reported at 2017-Feb-27 06:33 UTC. Time now 2017-Feb-27 06:55 UTC.
Position N 51°56' E 004°03'.

Length 230 m; draft 14.4 m.

Type: Ship. MMSI: 240576000.

Date/timePositionNaut miles runAvg speedWind from/ knotsBaromVisibWave heightAir tempDewpointWater temp
2017-Feb-27 06:33N 51°56' E 004°03'0 0.0
2017-Feb-27 05:33N 51°56' E 004°03'0 0.0
2017-Feb-27 04:33N 51°56' E 004°03'0 0.0
2017-Feb-27 03:33N 51°56' E 004°03'0 0.0
2017-Feb-27 02:33N 51°56' E 004°03'0 0.0
2017-Feb-27 01:33N 51°56' E 004°03'0 0.0
2017-Feb-27 00:33N 51°56' E 004°03'0 0.0
2017-Feb-26 23:33N 51°56' E 004°03'0 0.0
2017-Feb-26 22:33N 51°56' E 004°03'0 0.0
2017-Feb-26 21:33N 51°56' E 004°03'0 0.0
2017-Feb-26 20:32N 51°56' E 004°03'0 0.0
2017-Feb-26 19:33N 51°56' E 004°03'0 0.0
2017-Feb-26 18:33N 51°56' E 004°03'0 0.0
2017-Feb-26 17:33N 51°56' E 004°03'0 0.0
2017-Feb-26 16:32N 51°56' E 004°03'0 0.0
2017-Feb-26 15:33N 51°56' E 004°03'0 0.0
2017-Feb-26 14:30N 51°56' E 004°03'0 0.0
2017-Feb-26 13:33N 51°56' E 004°03'0 0.0
2017-Feb-26 12:33N 51°56' E 004°03'0 0.0
2017-Feb-26 11:33N 51°56' E 004°03'0 0.0
2017-Feb-26 10:32N 51°56' E 004°03'0 0.0
2017-Feb-26 09:33N 51°56' E 004°03'0 0.0
2017-Feb-26 08:33N 51°56' E 004°03'0 0.0
2017-Feb-26 07:33N 51°56' E 004°03'0 0.0
2017-Feb-26 06:33N 51°56' E 004°03'0 0.3
2017-Feb-26 05:33N 51°56' E 004°03'3 3.3
2017-Feb-26 04:33N 51°59' E 004°02'9 8.7
2017-Feb-26 03:33N 52°01' E 003°49'1211.1
2017-Feb-26 02:30N 51°59' E 003°30'4911.4
2017-Feb-25 22:12N 51°35' E 002°21'710.3
2017-Feb-25 21:33N 51°30' E 002°14'10 9.5
2017-Feb-25 20:33N 51°23' E 002°03'9 8.9
2017-Feb-25 19:33N 51°17' E 001°54'9 8.7
2017-Feb-25 18:33N 51°10' E 001°44'9 9.1
2017-Feb-25 17:33N 51°03' E 001°36'10 9.9
2017-Feb-25 16:33N 50°55' E 001°27'1010.3
2017-Feb-25 15:33N 50°45' E 001°21'4210.4
2017-Feb-25 11:32N 50°24' E 000°24'1211.2
2017-Feb-25 10:29N 50°21' E 000°07'1111.8
2017-Feb-25 09:33N 50°18' W 000°10'1312.5
2017-Feb-25 08:32N 50°15' W 000°29'1513.5
2017-Feb-25 07:25N 50°11' W 000°52'2613.6
2017-Feb-25 05:32N 50°04' W 001°31'1412.4
2017-Feb-25 04:24N 50°01' W 001°52'1110.9
2017-Feb-25 03:22N 49°58' W 002°09'19 9.3
2017-Feb-25 01:23N 49°53' W 002°36'8 8.9
2017-Feb-25 00:29N 49°50' W 002°48'11 9.3
2017-Feb-24 23:17N 49°46' W 003°04'8 9.8
2017-Feb-24 22:29N 49°42' W 003°14'1010.0
2017-Feb-24 21:31N 49°37' W 003°27'7711.1
2017-Feb-24 14:33N 48°57' W 005°09'1111.2
2017-Feb-24 13:33N 48°51' W 005°23'  
2017-Feb-22 01:33N 39°53' W 009°51'1010.5
2017-Feb-22 00:33N 39°43' W 009°51'1110.5
2017-Feb-21 23:33N 39°32' W 009°51'1110.7
2017-Feb-21 22:33N 39°22' W 009°52'1110.7
2017-Feb-21 21:33N 39°11' W 009°52'1010.4
2017-Feb-21 20:33N 39°01' W 009°52'1010.3
2017-Feb-21 19:33N 38°50' W 009°52'1010.2
2017-Feb-21 18:33N 38°40' W 009°51'1010.3
2017-Feb-21 17:33N 38°30' W 009°48'1010.2
2017-Feb-21 16:33N 38°20' W 009°45'1010.0
2017-Feb-21 15:34N 38°10' W 009°42'1010.1
2017-Feb-21 14:34N 38°01' W 009°39'10 9.9
2017-Feb-21 13:33N 37°51' W 009°35'6 6.1
2017-Feb-21 12:33N 37°45' W 009°34'8 7.7
2017-Feb-21 11:33N 37°38' W 009°33'210 9.5
2017-Feb-20 13:29N 35°58' W 005°42'1010.6
2017-Feb-20 12:33N 35°59' W 005°30'1110.6
2017-Feb-20 11:34N 36°01' W 005°17'1110.7
2017-Feb-20 10:33N 36°03' W 005°04'  

Dump ship's entire track history